sensor_id;sensor_type;location;lat;lon;timestamp;P1;durP1;ratioP1;P2;durP2;ratioP2
30249;SDS011;17064;47.974;13.826;2023-04-08T00:04:58;14.25;;;9.32;;
30249;SDS011;17064;47.974;13.826;2023-04-08T00:09:58;15.13;;;9.18;;
30249;SDS011;17064;47.974;13.826;2023-04-08T00:14:59;16.67;;;9.73;;
30249;SDS011;17064;47.974;13.826;2023-04-08T00:20:00;15.48;;;8.40;;
30249;SDS011;17064;47.974;13.826;2023-04-08T00:25:01;13.98;;;9.23;;
30249;SDS011;17064;47.974;13.826;2023-04-08T00:30:05;13.88;;;8.48;;
30249;SDS011;17064;47.974;13.826;2023-04-08T00:35:06;13.77;;;8.73;;
30249;SDS011;17064;47.974;13.826;2023-04-08T00:40:07;16.63;;;8.82;;
30249;SDS011;17064;47.974;13.826;2023-04-08T00:45:08;15.40;;;8.98;;
30249;SDS011;17064;47.974;13.826;2023-04-08T00:50:10;13.25;;;8.10;;
30249;SDS011;17064;47.974;13.826;2023-04-08T00:55:11;16.08;;;8.57;;
30249;SDS011;17064;47.974;13.826;2023-04-08T01:00:12;13.07;;;7.38;;
30249;SDS011;17064;47.974;13.826;2023-04-08T01:05:14;14.95;;;8.02;;
30249;SDS011;17064;47.974;13.826;2023-04-08T01:10:21;13.27;;;8.10;;
30249;SDS011;17064;47.974;13.826;2023-04-08T01:15:25;11.27;;;7.80;;
30249;SDS011;17064;47.974;13.826;2023-04-08T01:20:28;11.07;;;7.22;;
30249;SDS011;17064;47.974;13.826;2023-04-08T01:25:30;12.82;;;7.32;;
30249;SDS011;17064;47.974;13.826;2023-04-08T01:30:35;11.68;;;6.80;;
30249;SDS011;17064;47.974;13.826;2023-04-08T01:35:38;10.43;;;6.45;;
30249;SDS011;17064;47.974;13.826;2023-04-08T01:40:39;13.52;;;7.18;;
30249;SDS011;17064;47.974;13.826;2023-04-08T01:45:42;13.20;;;7.47;;
30249;SDS011;17064;47.974;13.826;2023-04-08T01:50:44;12.68;;;7.63;;
30249;SDS011;17064;47.974;13.826;2023-04-08T01:55:45;13.23;;;7.10;;
30249;SDS011;17064;47.974;13.826;2023-04-08T02:00:52;13.70;;;7.22;;
30249;SDS011;17064;47.974;13.826;2023-04-08T02:05:55;12.43;;;6.85;;
30249;SDS011;17064;47.974;13.826;2023-04-08T02:10:56;10.15;;;6.40;;
30249;SDS011;17064;47.974;13.826;2023-04-08T02:16:01;10.90;;;7.03;;
30249;SDS011;17064;47.974;13.826;2023-04-08T02:21:10;12.82;;;7.68;;
30249;SDS011;17064;47.974;13.826;2023-04-08T02:26:13;9.98;;;7.13;;
30249;SDS011;17064;47.974;13.826;2023-04-08T02:31:15;12.07;;;6.95;;
30249;SDS011;17064;47.974;13.826;2023-04-08T02:36:17;12.23;;;7.30;;
30249;SDS011;17064;47.974;13.826;2023-04-08T02:41:18;11.27;;;6.65;;
30249;SDS011;17064;47.974;13.826;2023-04-08T02:46:20;13.07;;;7.72;;
30249;SDS011;17064;47.974;13.826;2023-04-08T02:51:21;12.13;;;7.10;;
30249;SDS011;17064;47.974;13.826;2023-04-08T02:56:22;13.00;;;8.65;;
30249;SDS011;17064;47.974;13.826;2023-04-08T03:01:22;17.98;;;9.23;;
30249;SDS011;17064;47.974;13.826;2023-04-08T03:06:23;16.63;;;9.27;;
30249;SDS011;17064;47.974;13.826;2023-04-08T03:11:24;14.18;;;8.00;;
30249;SDS011;17064;47.974;13.826;2023-04-08T03:16:25;15.48;;;8.88;;
30249;SDS011;17064;47.974;13.826;2023-04-08T03:21:26;14.52;;;8.88;;
30249;SDS011;17064;47.974;13.826;2023-04-08T03:26:27;15.65;;;8.30;;
30249;SDS011;17064;47.974;13.826;2023-04-08T03:31:28;22.63;;;11.73;;
30249;SDS011;17064;47.974;13.826;2023-04-08T03:36:29;27.50;;;12.57;;
30249;SDS011;17064;47.974;13.826;2023-04-08T03:41:31;16.30;;;9.07;;
30249;SDS011;17064;47.974;13.826;2023-04-08T03:46:31;16.23;;;9.80;;
30249;SDS011;17064;47.974;13.826;2023-04-08T03:51:32;18.17;;;9.18;;
30249;SDS011;17064;47.974;13.826;2023-04-08T03:56:33;16.75;;;9.20;;
30249;SDS011;17064;47.974;13.826;2023-04-08T04:01:34;19.88;;;10.60;;
30249;SDS011;17064;47.974;13.826;2023-04-08T04:06:34;16.95;;;10.18;;
30249;SDS011;17064;47.974;13.826;2023-04-08T04:11:35;21.50;;;10.57;;
30249;SDS011;17064;47.974;13.826;2023-04-08T04:16:36;23.05;;;10.43;;
30249;SDS011;17064;47.974;13.826;2023-04-08T04:21:37;19.50;;;9.88;;
30249;SDS011;17064;47.974;13.826;2023-04-08T04:26:39;19.88;;;10.88;;
30249;SDS011;17064;47.974;13.826;2023-04-08T04:31:40;27.73;;;10.07;;
30249;SDS011;17064;47.974;13.826;2023-04-08T04:36:41;23.05;;;11.35;;
30249;SDS011;17064;47.974;13.826;2023-04-08T04:41:42;17.95;;;10.02;;
30249;SDS011;17064;47.974;13.826;2023-04-08T04:46:43;17.08;;;9.55;;
30249;SDS011;17064;47.974;13.826;2023-04-08T04:51:44;18.05;;;10.90;;
30249;SDS011;17064;47.974;13.826;2023-04-08T04:56:45;18.60;;;10.05;;
30249;SDS011;17064;47.974;13.826;2023-04-08T05:01:46;21.15;;;10.60;;
30249;SDS011;17064;47.974;13.826;2023-04-08T05:06:46;24.80;;;12.15;;
30249;SDS011;17064;47.974;13.826;2023-04-08T05:11:47;18.55;;;11.25;;
30249;SDS011;17064;47.974;13.826;2023-04-08T05:16:48;18.08;;;10.65;;
30249;SDS011;17064;47.974;13.826;2023-04-08T05:21:48;20.45;;;11.63;;
30249;SDS011;17064;47.974;13.826;2023-04-08T05:26:49;22.33;;;10.45;;
30249;SDS011;17064;47.974;13.826;2023-04-08T05:31:52;21.10;;;11.30;;
30249;SDS011;17064;47.974;13.826;2023-04-08T05:36:53;20.63;;;10.98;;
30249;SDS011;17064;47.974;13.826;2023-04-08T05:41:53;19.13;;;10.40;;
30249;SDS011;17064;47.974;13.826;2023-04-08T05:46:54;17.70;;;10.50;;
30249;SDS011;17064;47.974;13.826;2023-04-08T05:51:56;17.67;;;10.68;;
30249;SDS011;17064;47.974;13.826;2023-04-08T05:57:03;18.00;;;10.45;;
30249;SDS011;17064;47.974;13.826;2023-04-08T06:02:04;20.25;;;11.68;;
30249;SDS011;17064;47.974;13.826;2023-04-08T06:07:05;21.38;;;11.50;;
30249;SDS011;17064;47.974;13.826;2023-04-08T06:12:07;21.05;;;11.68;;
30249;SDS011;17064;47.974;13.826;2023-04-08T06:17:08;21.42;;;11.75;;
30249;SDS011;17064;47.974;13.826;2023-04-08T06:22:08;25.08;;;12.70;;
30249;SDS011;17064;47.974;13.826;2023-04-08T06:27:09;24.90;;;12.30;;
30249;SDS011;17064;47.974;13.826;2023-04-08T06:32:10;27.23;;;14.38;;
30249;SDS011;17064;47.974;13.826;2023-04-08T06:37:11;22.05;;;12.32;;
30249;SDS011;17064;47.974;13.826;2023-04-08T06:42:11;20.85;;;11.70;;
30249;SDS011;17064;47.974;13.826;2023-04-08T06:47:12;24.63;;;13.52;;
30249;SDS011;17064;47.974;13.826;2023-04-08T06:52:13;23.27;;;13.45;;
30249;SDS011;17064;47.974;13.826;2023-04-08T06:57:13;26.50;;;13.23;;
30249;SDS011;17064;47.974;13.826;2023-04-08T07:02:14;79.53;;;30.05;;
30249;SDS011;17064;47.974;13.826;2023-04-08T07:07:15;27.60;;;13.85;;
30249;SDS011;17064;47.974;13.826;2023-04-08T07:12:16;44.03;;;27.70;;
30249;SDS011;17064;47.974;13.826;2023-04-08T07:17:17;27.15;;;15.70;;
30249;SDS011;17064;47.974;13.826;2023-04-08T07:22:17;24.33;;;14.60;;
30249;SDS011;17064;47.974;13.826;2023-04-08T07:27:18;24.55;;;14.77;;
30249;SDS011;17064;47.974;13.826;2023-04-08T07:32:19;27.48;;;15.02;;
30249;SDS011;17064;47.974;13.826;2023-04-08T07:37:20;27.42;;;16.20;;
30249;SDS011;17064;47.974;13.826;2023-04-08T07:42:20;26.95;;;14.65;;
30249;SDS011;17064;47.974;13.826;2023-04-08T07:47:21;33.60;;;17.52;;
30249;SDS011;17064;47.974;13.826;2023-04-08T07:52:22;40.63;;;19.55;;
30249;SDS011;17064;47.974;13.826;2023-04-08T07:57:22;30.48;;;15.75;;
30249;SDS011;17064;47.974;13.826;2023-04-08T08:02:23;29.85;;;17.10;;
30249;SDS011;17064;47.974;13.826;2023-04-08T08:07:24;29.60;;;16.08;;
30249;SDS011;17064;47.974;13.826;2023-04-08T08:12:24;33.67;;;16.75;;
30249;SDS011;17064;47.974;13.826;2023-04-08T08:17:25;29.08;;;16.38;;
30249;SDS011;17064;47.974;13.826;2023-04-08T08:27:29;28.92;;;17.33;;
30249;SDS011;17064;47.974;13.826;2023-04-08T08:32:30;29.88;;;16.77;;
30249;SDS011;17064;47.974;13.826;2023-04-08T08:37:31;27.95;;;17.05;;
30249;SDS011;17064;47.974;13.826;2023-04-08T08:42:32;38.20;;;18.45;;
30249;SDS011;17064;47.974;13.826;2023-04-08T08:47:33;29.65;;;16.92;;
30249;SDS011;17064;47.974;13.826;2023-04-08T08:52:33;46.03;;;23.27;;
30249;SDS011;17064;47.974;13.826;2023-04-08T08:57:34;32.28;;;17.98;;
30249;SDS011;17064;47.974;13.826;2023-04-08T09:02:35;32.28;;;19.00;;
30249;SDS011;17064;47.974;13.826;2023-04-08T09:07:36;31.98;;;18.25;;
30249;SDS011;17064;47.974;13.826;2023-04-08T09:12:53;32.72;;;18.98;;
30249;SDS011;17064;47.974;13.826;2023-04-08T09:17:55;34.53;;;18.92;;
30249;SDS011;17064;47.974;13.826;2023-04-08T09:22:58;32.05;;;17.85;;
30249;SDS011;17064;47.974;13.826;2023-04-08T09:28:00;34.30;;;19.55;;
30249;SDS011;17064;47.974;13.826;2023-04-08T09:33:02;34.58;;;18.88;;
30249;SDS011;17064;47.974;13.826;2023-04-08T09:38:06;32.83;;;18.60;;
30249;SDS011;17064;47.974;13.826;2023-04-08T09:43:06;30.42;;;19.02;;
30249;SDS011;17064;47.974;13.826;2023-04-08T09:48:11;30.27;;;18.17;;
30249;SDS011;17064;47.974;13.826;2023-04-08T09:53:23;31.10;;;17.33;;
30249;SDS011;17064;47.974;13.826;2023-04-08T09:58:33;32.83;;;17.42;;
30249;SDS011;17064;47.974;13.826;2023-04-08T10:03:57;26.70;;;16.70;;
30249;SDS011;17064;47.974;13.826;2023-04-08T10:09:01;27.45;;;16.95;;
30249;SDS011;17064;47.974;13.826;2023-04-08T10:14:03;30.13;;;17.80;;
30249;SDS011;17064;47.974;13.826;2023-04-08T10:19:34;25.45;;;16.60;;
30249;SDS011;17064;47.974;13.826;2023-04-08T10:24:42;29.88;;;17.60;;
30249;SDS011;17064;47.974;13.826;2023-04-08T10:35:36;30.13;;;18.08;;
30249;SDS011;17064;47.974;13.826;2023-04-08T10:40:41;30.35;;;17.85;;
30249;SDS011;17064;47.974;13.826;2023-04-08T10:45:43;31.83;;;18.17;;
30249;SDS011;17064;47.974;13.826;2023-04-08T10:50:55;30.27;;;17.70;;
30249;SDS011;17064;47.974;13.826;2023-04-08T10:56:09;26.13;;;16.33;;
30249;SDS011;17064;47.974;13.826;2023-04-08T11:01:17;27.00;;;16.23;;
30249;SDS011;17064;47.974;13.826;2023-04-08T11:06:18;25.08;;;15.85;;
30249;SDS011;17064;47.974;13.826;2023-04-08T11:11:19;23.35;;;15.55;;
30249;SDS011;17064;47.974;13.826;2023-04-08T11:16:20;29.02;;;17.65;;
30249;SDS011;17064;47.974;13.826;2023-04-08T11:21:24;28.20;;;16.40;;
30249;SDS011;17064;47.974;13.826;2023-04-08T11:26:28;28.00;;;16.42;;
30249;SDS011;17064;47.974;13.826;2023-04-08T11:31:29;27.40;;;16.17;;
30249;SDS011;17064;47.974;13.826;2023-04-08T11:36:31;26.90;;;16.17;;
30249;SDS011;17064;47.974;13.826;2023-04-08T11:41:38;31.00;;;18.53;;
30249;SDS011;17064;47.974;13.826;2023-04-08T11:46:39;29.58;;;17.20;;
30249;SDS011;17064;47.974;13.826;2023-04-08T11:52:14;27.95;;;17.20;;
30249;SDS011;17064;47.974;13.826;2023-04-08T11:57:08;28.17;;;16.85;;
30249;SDS011;17064;47.974;13.826;2023-04-08T12:02:09;27.80;;;17.33;;
30249;SDS011;17064;47.974;13.826;2023-04-08T12:07:10;24.50;;;16.92;;
30249;SDS011;17064;47.974;13.826;2023-04-08T12:12:11;27.02;;;16.70;;
30249;SDS011;17064;47.974;13.826;2023-04-08T12:17:11;25.92;;;16.75;;
30249;SDS011;17064;47.974;13.826;2023-04-08T12:22:12;26.02;;;18.20;;
30249;SDS011;17064;47.974;13.826;2023-04-08T12:27:13;26.23;;;16.83;;
30249;SDS011;17064;47.974;13.826;2023-04-08T12:32:14;25.98;;;17.15;;
30249;SDS011;17064;47.974;13.826;2023-04-08T12:37:15;26.23;;;16.40;;
30249;SDS011;17064;47.974;13.826;2023-04-08T12:42:15;26.58;;;17.55;;
30249;SDS011;17064;47.974;13.826;2023-04-08T12:47:16;25.55;;;16.17;;
30249;SDS011;17064;47.974;13.826;2023-04-08T12:52:17;26.92;;;17.48;;
30249;SDS011;17064;47.974;13.826;2023-04-08T12:57:18;35.45;;;21.38;;
30249;SDS011;17064;47.974;13.826;2023-04-08T13:02:19;26.25;;;17.13;;
30249;SDS011;17064;47.974;13.826;2023-04-08T13:07:20;31.83;;;20.08;;
30249;SDS011;17064;47.974;13.826;2023-04-08T13:12:21;26.58;;;17.10;;
30249;SDS011;17064;47.974;13.826;2023-04-08T13:17:21;26.17;;;16.00;;
30249;SDS011;17064;47.974;13.826;2023-04-08T13:22:22;26.90;;;17.00;;
30249;SDS011;17064;47.974;13.826;2023-04-08T13:27:23;23.50;;;15.02;;
30249;SDS011;17064;47.974;13.826;2023-04-08T13:32:23;25.83;;;16.23;;
30249;SDS011;17064;47.974;13.826;2023-04-08T13:37:24;25.25;;;16.80;;
30249;SDS011;17064;47.974;13.826;2023-04-08T13:42:25;29.25;;;16.20;;
30249;SDS011;17064;47.974;13.826;2023-04-08T13:47:26;28.17;;;18.30;;
30249;SDS011;17064;47.974;13.826;2023-04-08T13:52:27;28.70;;;17.95;;
30249;SDS011;17064;47.974;13.826;2023-04-08T13:57:27;25.15;;;16.75;;
30249;SDS011;17064;47.974;13.826;2023-04-08T14:02:28;27.35;;;17.13;;
30249;SDS011;17064;47.974;13.826;2023-04-08T14:07:29;24.02;;;16.00;;
30249;SDS011;17064;47.974;13.826;2023-04-08T14:12:29;28.98;;;17.73;;
30249;SDS011;17064;47.974;13.826;2023-04-08T14:17:30;31.60;;;17.60;;
30249;SDS011;17064;47.974;13.826;2023-04-08T14:22:31;26.42;;;16.65;;
30249;SDS011;17064;47.974;13.826;2023-04-08T14:27:31;27.67;;;16.52;;
30249;SDS011;17064;47.974;13.826;2023-04-08T14:32:32;28.38;;;17.27;;
30249;SDS011;17064;47.974;13.826;2023-04-08T14:37:32;35.08;;;18.85;;
30249;SDS011;17064;47.974;13.826;2023-04-08T14:42:33;32.47;;;18.98;;
30249;SDS011;17064;47.974;13.826;2023-04-08T14:47:34;36.42;;;20.48;;
30249;SDS011;17064;47.974;13.826;2023-04-08T14:52:35;24.63;;;16.15;;
30249;SDS011;17064;47.974;13.826;2023-04-08T14:57:35;28.48;;;17.52;;
30249;SDS011;17064;47.974;13.826;2023-04-08T15:02:36;28.75;;;18.30;;
30249;SDS011;17064;47.974;13.826;2023-04-08T15:07:36;27.63;;;17.33;;
30249;SDS011;17064;47.974;13.826;2023-04-08T15:12:37;63.33;;;30.27;;
30249;SDS011;17064;47.974;13.826;2023-04-08T15:17:38;26.50;;;16.65;;
30249;SDS011;17064;47.974;13.826;2023-04-08T15:22:38;23.25;;;15.80;;
30249;SDS011;17064;47.974;13.826;2023-04-08T15:27:39;23.23;;;14.77;;
30249;SDS011;17064;47.974;13.826;2023-04-08T15:32:40;20.30;;;13.93;;
30249;SDS011;17064;47.974;13.826;2023-04-08T15:37:41;22.65;;;14.85;;
30249;SDS011;17064;47.974;13.826;2023-04-08T15:42:42;21.50;;;15.00;;
30249;SDS011;17064;47.974;13.826;2023-04-08T15:47:43;23.05;;;15.23;;
30249;SDS011;17064;47.974;13.826;2023-04-08T15:52:44;22.88;;;15.50;;
30249;SDS011;17064;47.974;13.826;2023-04-08T15:57:45;21.65;;;14.52;;
30249;SDS011;17064;47.974;13.826;2023-04-08T16:02:45;20.75;;;13.88;;
30249;SDS011;17064;47.974;13.826;2023-04-08T16:07:46;18.85;;;12.52;;
30249;SDS011;17064;47.974;13.826;2023-04-08T16:12:47;18.35;;;12.23;;
30249;SDS011;17064;47.974;13.826;2023-04-08T16:17:51;17.88;;;12.40;;
30249;SDS011;17064;47.974;13.826;2023-04-08T16:22:52;19.25;;;12.70;;
30249;SDS011;17064;47.974;13.826;2023-04-08T16:27:53;21.25;;;14.02;;
30249;SDS011;17064;47.974;13.826;2023-04-08T16:32:54;22.67;;;14.27;;
30249;SDS011;17064;47.974;13.826;2023-04-08T16:37:54;25.65;;;14.07;;
30249;SDS011;17064;47.974;13.826;2023-04-08T16:42:55;19.48;;;10.93;;
30249;SDS011;17064;47.974;13.826;2023-04-08T16:47:56;14.00;;;8.30;;
30249;SDS011;17064;47.974;13.826;2023-04-08T16:52:57;14.00;;;8.65;;
30249;SDS011;17064;47.974;13.826;2023-04-08T16:58:01;15.07;;;8.93;;
30249;SDS011;17064;47.974;13.826;2023-04-08T17:03:03;15.82;;;9.02;;
30249;SDS011;17064;47.974;13.826;2023-04-08T17:08:03;11.57;;;8.02;;
30249;SDS011;17064;47.974;13.826;2023-04-08T17:13:04;11.52;;;7.57;;
30249;SDS011;17064;47.974;13.826;2023-04-08T17:18:05;12.50;;;8.43;;
30249;SDS011;17064;47.974;13.826;2023-04-08T17:23:06;14.32;;;8.20;;
30249;SDS011;17064;47.974;13.826;2023-04-08T17:28:07;29.92;;;13.95;;
30249;SDS011;17064;47.974;13.826;2023-04-08T17:33:08;20.73;;;11.65;;
30249;SDS011;17064;47.974;13.826;2023-04-08T17:38:09;13.23;;;9.00;;
30249;SDS011;17064;47.974;13.826;2023-04-08T17:43:09;12.48;;;7.93;;
30249;SDS011;17064;47.974;13.826;2023-04-08T17:48:11;15.20;;;8.90;;
30249;SDS011;17064;47.974;13.826;2023-04-08T17:53:12;20.75;;;9.90;;
30249;SDS011;17064;47.974;13.826;2023-04-08T17:58:13;14.95;;;8.85;;
30249;SDS011;17064;47.974;13.826;2023-04-08T18:03:13;16.60;;;9.18;;
30249;SDS011;17064;47.974;13.826;2023-04-08T18:08:14;12.25;;;8.93;;
30249;SDS011;17064;47.974;13.826;2023-04-08T18:13:15;22.02;;;12.95;;
30249;SDS011;17064;47.974;13.826;2023-04-08T18:18:16;30.75;;;17.70;;
30249;SDS011;17064;47.974;13.826;2023-04-08T18:23:19;34.70;;;18.00;;
30249;SDS011;17064;47.974;13.826;2023-04-08T18:28:20;20.17;;;11.38;;
30249;SDS011;17064;47.974;13.826;2023-04-08T18:33:21;18.55;;;12.27;;
30249;SDS011;17064;47.974;13.826;2023-04-08T18:38:22;18.98;;;12.73;;
30249;SDS011;17064;47.974;13.826;2023-04-08T18:43:23;15.55;;;10.43;;
30249;SDS011;17064;47.974;13.826;2023-04-08T18:48:23;17.35;;;11.15;;
30249;SDS011;17064;47.974;13.826;2023-04-08T18:53:24;14.75;;;10.20;;
30249;SDS011;17064;47.974;13.826;2023-04-08T18:58:25;17.10;;;10.80;;
30249;SDS011;17064;47.974;13.826;2023-04-08T19:03:26;16.23;;;11.25;;
30249;SDS011;17064;47.974;13.826;2023-04-08T19:08:27;16.58;;;10.35;;
30249;SDS011;17064;47.974;13.826;2023-04-08T19:13:28;12.88;;;9.20;;
30249;SDS011;17064;47.974;13.826;2023-04-08T19:18:29;14.70;;;9.52;;
30249;SDS011;17064;47.974;13.826;2023-04-08T19:23:30;15.45;;;9.15;;
30249;SDS011;17064;47.974;13.826;2023-04-08T19:28:31;12.32;;;8.52;;
30249;SDS011;17064;47.974;13.826;2023-04-08T19:33:32;11.02;;;7.28;;
30249;SDS011;17064;47.974;13.826;2023-04-08T19:38:33;10.13;;;6.78;;
30249;SDS011;17064;47.974;13.826;2023-04-08T19:43:33;11.13;;;7.22;;
30249;SDS011;17064;47.974;13.826;2023-04-08T19:48:34;12.45;;;7.38;;
30249;SDS011;17064;47.974;13.826;2023-04-08T19:53:35;11.60;;;7.22;;
30249;SDS011;17064;47.974;13.826;2023-04-08T19:58:36;13.07;;;7.50;;
30249;SDS011;17064;47.974;13.826;2023-04-08T20:03:36;14.25;;;8.48;;
30249;SDS011;17064;47.974;13.826;2023-04-08T20:08:37;13.82;;;7.65;;
30249;SDS011;17064;47.974;13.826;2023-04-08T20:13:38;13.80;;;8.15;;
30249;SDS011;17064;47.974;13.826;2023-04-08T20:18:39;14.05;;;8.45;;
30249;SDS011;17064;47.974;13.826;2023-04-08T20:23:40;14.77;;;8.10;;
30249;SDS011;17064;47.974;13.826;2023-04-08T20:28:43;14.27;;;8.15;;
30249;SDS011;17064;47.974;13.826;2023-04-08T20:33:45;14.45;;;8.18;;
30249;SDS011;17064;47.974;13.826;2023-04-08T20:38:45;11.57;;;7.93;;
30249;SDS011;17064;47.974;13.826;2023-04-08T20:43:46;14.68;;;8.63;;
30249;SDS011;17064;47.974;13.826;2023-04-08T20:48:49;14.20;;;7.93;;
30249;SDS011;17064;47.974;13.826;2023-04-08T20:53:50;13.93;;;8.35;;
30249;SDS011;17064;47.974;13.826;2023-04-08T20:58:50;15.02;;;8.10;;
30249;SDS011;17064;47.974;13.826;2023-04-08T21:03:51;14.40;;;8.43;;
30249;SDS011;17064;47.974;13.826;2023-04-08T21:08:52;14.70;;;9.10;;
30249;SDS011;17064;47.974;13.826;2023-04-08T21:13:53;15.52;;;9.38;;
30249;SDS011;17064;47.974;13.826;2023-04-08T21:18:53;14.65;;;9.02;;
30249;SDS011;17064;47.974;13.826;2023-04-08T21:23:56;86.67;;;23.80;;
30249;SDS011;17064;47.974;13.826;2023-04-08T21:28:57;22.25;;;11.57;;
30249;SDS011;17064;47.974;13.826;2023-04-08T21:33:57;18.45;;;9.82;;
30249;SDS011;17064;47.974;13.826;2023-04-08T21:38:58;17.83;;;9.35;;
30249;SDS011;17064;47.974;13.826;2023-04-08T21:43:59;18.33;;;9.65;;
30249;SDS011;17064;47.974;13.826;2023-04-08T21:49:00;15.45;;;8.70;;
30249;SDS011;17064;47.974;13.826;2023-04-08T21:54:00;15.20;;;8.50;;
30249;SDS011;17064;47.974;13.826;2023-04-08T21:59:01;14.38;;;8.57;;
30249;SDS011;17064;47.974;13.826;2023-04-08T22:04:03;16.15;;;8.70;;
30249;SDS011;17064;47.974;13.826;2023-04-08T22:09:03;15.63;;;9.18;;
30249;SDS011;17064;47.974;13.826;2023-04-08T22:14:04;15.20;;;8.63;;
30249;SDS011;17064;47.974;13.826;2023-04-08T22:19:05;21.13;;;10.65;;
30249;SDS011;17064;47.974;13.826;2023-04-08T22:24:06;19.85;;;10.05;;
30249;SDS011;17064;47.974;13.826;2023-04-08T22:29:06;18.55;;;10.05;;
30249;SDS011;17064;47.974;13.826;2023-04-08T22:34:07;15.70;;;8.88;;
30249;SDS011;17064;47.974;13.826;2023-04-08T22:39:08;20.70;;;10.88;;
30249;SDS011;17064;47.974;13.826;2023-04-08T22:44:08;19.60;;;10.63;;
30249;SDS011;17064;47.974;13.826;2023-04-08T22:49:09;21.45;;;11.07;;
30249;SDS011;17064;47.974;13.826;2023-04-08T22:54:10;21.92;;;11.40;;
30249;SDS011;17064;47.974;13.826;2023-04-08T22:59:10;22.38;;;11.05;;
30249;SDS011;17064;47.974;13.826;2023-04-08T23:04:11;20.30;;;11.07;;
30249;SDS011;17064;47.974;13.826;2023-04-08T23:09:12;22.48;;;11.20;;
30249;SDS011;17064;47.974;13.826;2023-04-08T23:14:12;22.88;;;12.00;;
30249;SDS011;17064;47.974;13.826;2023-04-08T23:19:13;22.67;;;11.18;;
30249;SDS011;17064;47.974;13.826;2023-04-08T23:24:14;20.45;;;11.25;;
30249;SDS011;17064;47.974;13.826;2023-04-08T23:29:16;18.20;;;10.68;;
30249;SDS011;17064;47.974;13.826;2023-04-08T23:34:17;19.30;;;10.77;;
30249;SDS011;17064;47.974;13.826;2023-04-08T23:39:18;17.67;;;9.48;;
30249;SDS011;17064;47.974;13.826;2023-04-08T23:44:19;16.02;;;9.45;;
30249;SDS011;17064;47.974;13.826;2023-04-08T23:49:20;18.80;;;10.32;;
30249;SDS011;17064;47.974;13.826;2023-04-08T23:54:20;17.25;;;9.90;;
30249;SDS011;17064;47.974;13.826;2023-04-08T23:59:21;19.92;;;10.55;;
